Time;durP1;ratioP1;P1;durP2;ratioP2;P2;SDS_P1;SDS_P2;PMS_P1;PMS_P2;Temp;Humidity;BMP_temperature;BMP_pressure;BME280_temperature;BME280_humidity;BME280_pressure;Samples;Min_cycle;Max_cycle;Signal;HPM_P1;HPM_P2
2022/11/06 00:01:27;;;;;;;1.25;0.90;;;19.70;58.40;;;;;;6290038;28;20584;-69
2022/11/06 00:04:30;;;;;;;1.67;0.80;;;19.70;58.40;;;;;;6291286;28;20040;-69
2022/11/06 00:07:31;;;;;;;2.20;0.90;;;19.70;58.40;;;;;;6291111;28;20446;-68
2022/11/06 00:10:31;;;;;;;1.77;0.95;;;19.70;58.30;;;;;;6295392;28;20039;-69
2022/11/06 00:13:32;;;;;;;1.88;1.10;;;19.70;58.40;;;;;;6295881;28;20025;-69
2022/11/06 00:16:33;;;;;;;2.05;1.00;;;19.70;58.50;;;;;;6295905;28;20483;-68
2022/11/06 00:19:33;;;;;;;2.40;1.20;;;19.70;58.40;;;;;;6295816;28;20167;-68
2022/11/06 00:22:37;;;;;;;1.42;0.90;;;19.70;58.40;;;;;;6295658;28;20560;-69
2022/11/06 00:25:41;;;;;;;3.88;1.17;;;19.70;58.40;;;;;;6303974;28;20020;-68
2022/11/06 00:28:42;;;;;;;1.65;1.00;;;19.70;58.00;;;;;;6307226;28;20052;-68
2022/11/06 00:31:42;;;;;;;1.10;0.80;;;19.70;58.40;;;;;;6295495;28;20067;-69
2022/11/06 00:34:43;;;;;;;1.00;0.90;;;19.70;58.40;;;;;;6295295;28;20111;-69
2022/11/06 00:37:43;;;;;;;1.33;0.88;;;19.70;58.40;;;;;;6295267;28;20050;-69
2022/11/06 00:40:44;;;;;;;1.55;1.00;;;19.70;58.40;;;;;;6295416;28;20115;-68
2022/11/06 00:44:03;;;;;;;1.33;0.80;;;19.70;58.50;;;;;;6295680;28;20039;-68
2022/11/06 00:47:04;;;;;;;1.75;1.05;;;19.70;58.30;;;;;;6294996;28;20029;-70
2022/11/06 00:50:05;;;;;;;1.80;1.13;;;19.70;57.90;;;;;;6295355;28;20067;-68
2022/11/06 00:53:05;;;;;;;1.75;0.95;;;19.70;58.30;;;;;;6294918;28;20085;-68
2022/11/06 00:56:09;;;;;;;1.38;1.00;;;19.70;58.00;;;;;;6295336;28;20484;-69
2022/11/06 00:59:12;;;;;;;1.67;1.00;;;19.70;57.90;;;;;;6295270;28;20035;-69
2022/11/06 01:02:13;;;;;;;1.27;0.85;;;19.70;58.10;;;;;;6295390;28;20324;-69
2022/11/06 01:05:14;;;;;;;2.03;0.95;;;19.70;58.40;;;;;;6310109;28;20033;-69
2022/11/06 01:08:14;;;;;;;1.48;0.90;;;19.70;58.00;;;;;;6294649;28;20029;-69
2022/11/06 01:11:18;;;;;;;1.38;0.90;;;19.70;58.30;;;;;;6294964;28;20028;-69
2022/11/06 01:14:21;;;;;;;1.52;0.98;;;19.70;58.00;;;;;;6294431;28;20032;-69
2022/11/06 01:17:22;;;;;;;1.48;1.00;;;19.70;58.40;;;;;;6294635;28;20487;-68
2022/11/06 01:20:22;;;;;;;1.42;0.80;;;19.70;58.10;;;;;;6293771;28;20036;-69
2022/11/06 01:23:23;;;;;;;1.95;1.00;;;19.70;58.00;;;;;;6294607;28;20025;-68
2022/11/06 01:26:24;;;;;;;2.08;1.00;;;19.70;57.90;;;;;;6294079;28;20028;-68
2022/11/06 01:29:25;;;;;;;1.45;0.60;;;19.70;58.00;;;;;;6294194;28;20071;-68
2022/11/06 01:32:25;;;;;;;1.13;0.80;;;19.70;58.00;;;;;;6293779;28;20387;-68
2022/11/06 01:35:26;;;;;;;1.27;0.90;;;19.70;58.40;;;;;;6294221;28;20099;-68
2022/11/06 01:38:28;;;;;;;1.45;1.10;;;19.70;58.00;;;;;;6293984;28;20107;-68
2022/11/06 01:41:40;;;;;;;0.95;0.70;;;19.70;58.40;;;;;;6293873;28;20099;-68
2022/11/06 01:44:41;;;;;;;1.70;0.82;;;19.70;58.30;;;;;;6293759;28;20040;-68
2022/11/06 01:47:41;;;;;;;0.73;0.63;;;19.70;58.30;;;;;;6293478;28;20028;-69
2022/11/06 01:50:46;;;;;;;2.63;1.30;;;19.70;58.30;;;;;;6293602;28;20045;-68
2022/11/06 01:53:47;;;;;;;1.55;1.20;;;19.70;58.00;;;;;;6293389;28;20479;-68
2022/11/06 01:56:51;;;;;;;1.15;0.70;;;19.70;58.00;;;;;;6293733;28;20074;-69
2022/11/06 01:59:54;;;;;;;1.30;0.77;;;19.70;58.00;;;;;;6293365;28;20032;-68
2022/11/06 02:02:54;;;;;;;1.08;0.70;;;19.70;57.90;;;;;;6293185;28;20032;-68
2022/11/06 02:05:56;;;;;;;1.85;1.13;;;19.70;58.00;;;;;;6293186;28;20029;-67
2022/11/06 02:08:57;;;;;;;2.78;1.10;;;19.70;57.90;;;;;;6293197;28;20020;-68
2022/11/06 02:12:12;;;;;;;1.15;0.80;;;19.70;58.00;;;;;;6293225;28;20078;-68
2022/11/06 02:15:25;;;;;;;1.10;0.70;;;19.70;57.90;;;;;;6292966;28;20025;-68
2022/11/06 02:18:47;;;;;;;5.40;1.10;;;19.70;58.00;;;;;;6292671;28;20024;-68
2022/11/06 02:22:25;;;;;;;0.70;0.65;;;19.70;58.10;;;;;;6292707;28;20549;-69
2022/11/06 02:25:41;;;;;;;2.20;0.95;;;19.70;57.90;;;;;;6292749;28;20426;-68
2022/11/06 02:28:55;;;;;;;1.17;0.70;;;19.70;57.90;;;;;;6292973;28;20036;-68
2022/11/06 02:31:58;;;;;;;1.52;0.82;;;19.70;57.90;;;;;;6291870;28;20546;-69
2022/11/06 02:35:04;;;;;;;2.05;0.93;;;19.70;57.90;;;;;;6292970;28;20494;-68
2022/11/06 02:38:09;;;;;;;1.73;0.80;;;19.70;58.00;;;;;;6292377;28;20048;-68
2022/11/06 02:41:24;;;;;;;1.60;0.70;;;19.70;58.00;;;;;;6292671;28;20391;-68
2022/11/06 02:44:27;;;;;;;1.17;0.88;;;19.70;57.90;;;;;;6292242;28;20036;-68
2022/11/06 02:47:32;;;;;;;3.53;0.93;;;19.70;57.90;;;;;;6292710;28;20100;-69
2022/11/06 02:50:38;;;;;;;2.30;1.10;;;19.70;57.90;;;;;;6291842;28;20522;-69
2022/11/06 02:53:42;;;;;;;0.75;0.60;;;19.70;57.90;;;;;;6292104;28;20031;-68
2022/11/06 02:56:47;;;;;;;1.92;0.80;;;19.70;57.90;;;;;;6291909;28;20016;-69
2022/11/06 02:59:55;;;;;;;1.38;0.98;;;19.70;57.90;;;;;;6292883;28;20024;-68
2022/11/06 03:03:09;;;;;;;1.27;0.80;;;19.70;58.00;;;;;;6291074;28;20460;-69
2022/11/06 03:06:28;;;;;;;1.63;0.82;;;19.70;57.90;;;;;;6291933;28;20414;-69
2022/11/06 03:09:32;;;;;;;1.70;0.98;;;19.70;58.00;;;;;;6292120;28;20044;-68
2022/11/06 03:12:37;;;;;;;1.48;1.00;;;19.70;58.50;;;;;;6292413;28;20244;-69
2022/11/06 03:15:48;;;;;;;0.80;0.60;;;19.70;58.00;;;;;;6292442;28;20352;-68
2022/11/06 03:19:01;;;;;;;1.55;0.80;;;19.70;58.00;;;;;;6292437;28;20028;-69
2022/11/06 03:22:09;;;;;;;1.73;1.05;;;19.70;58.10;;;;;;6292292;28;20029;-69
2022/11/06 03:25:17;;;;;;;1.40;0.73;;;19.70;58.60;;;;;;6291134;28;20124;-68
2022/11/06 03:28:28;;;;;;;1.60;0.88;;;19.70;58.00;;;;;;6292022;28;20076;-69
2022/11/06 03:31:36;;;;;;;1.73;0.80;;;19.70;58.30;;;;;;6291861;28;20020;-68
2022/11/06 03:34:52;;;;;;;1.67;0.90;;;19.70;58.00;;;;;;6291568;28;20024;-69
2022/11/06 03:38:06;;;;;;;1.50;0.85;;;19.70;58.00;;;;;;6292325;28;20025;-69
2022/11/06 03:41:19;;;;;;;1.08;0.77;;;19.70;57.90;;;;;;6291399;28;20016;-68
2022/11/06 03:44:25;;;;;;;1.38;0.77;;;19.70;57.90;;;;;;6293658;28;20056;-68
2022/11/06 03:47:48;;;;;;;1.27;0.77;;;19.70;57.90;;;;;;6296644;28;20109;-68
2022/11/06 03:50:57;;;;;;;1.45;0.80;;;19.70;58.20;;;;;;6295993;28;20059;-68
2022/11/06 03:54:04;;;;;;;2.20;1.10;;;19.70;57.90;;;;;;6296183;28;20021;-69
2022/11/06 03:57:24;;;;;;;1.27;0.90;;;19.70;58.00;;;;;;6296739;28;20060;-68
2022/11/06 04:00:24;;;;;;;1.20;0.88;;;19.70;58.70;;;;;;6295842;28;20542;-69
2022/11/06 04:03:34;;;;;;;1.30;0.85;;;19.70;58.20;;;;;;6296109;28;20119;-68
2022/11/06 04:07:01;;;;;;;1.45;0.90;;;19.70;58.90;;;;;;6296477;28;20483;-68
2022/11/06 04:16:49;;;;;;;1.33;0.85;;;19.70;58.30;;;;;;6295666;28;20021;-68
2022/11/06 04:19:59;;;;;;;1.20;0.75;;;19.70;58.10;;;;;;6295706;28;20086;-68
2022/11/06 04:23:16;;;;;;;1.83;1.10;;;19.70;59.00;;;;;;6295712;28;20020;-68
2022/11/06 04:26:34;;;;;;;1.52;0.80;;;19.70;58.30;;;;;;6295762;28;20020;-69
2022/11/06 04:29:51;;;;;;;1.75;0.82;;;19.70;58.20;;;;;;6296035;28;20040;-68
2022/11/06 04:33:06;;;;;;;0.80;0.60;;;19.70;58.30;;;;;;6296557;28;20082;-69
2022/11/06 04:36:18;;;;;;;1.65;1.20;;;19.70;58.40;;;;;;6295518;28;20074;-68
2022/11/06 04:39:22;;;;;;;1.42;0.90;;;19.70;58.50;;;;;;6271294;28;20086;-69
2022/11/06 04:42:38;;;;;;;1.02;0.70;;;19.70;58.40;;;;;;6279688;28;20025;-68
2022/11/06 04:45:44;;;;;;;2.00;1.00;;;19.70;58.30;;;;;;6295445;28;20028;-69
2022/11/06 04:48:46;;;;;;;1.38;1.00;;;19.70;58.30;;;;;;6295843;28;20476;-69
2022/11/06 04:51:48;;;;;;;1.25;0.80;;;19.70;58.40;;;;;;6295281;28;20412;-69
2022/11/06 04:54:51;;;;;;;1.38;0.77;;;19.70;58.50;;;;;;6294900;28;20055;-69
2022/11/06 04:57:52;;;;;;;1.13;0.75;;;19.70;58.50;;;;;;6294812;28;20039;-68
2022/11/06 05:00:52;;;;;;;1.55;1.02;;;19.60;58.30;;;;;;6295395;28;20673;-68
2022/11/06 05:03:53;;;;;;;0.88;0.60;;;19.70;58.40;;;;;;6294680;28;20085;-68
2022/11/06 05:06:53;;;;;;;1.58;0.98;;;19.70;58.40;;;;;;6294958;28;20066;-69
2022/11/06 05:09:54;;;;;;;1.50;0.70;;;19.70;58.40;;;;;;6294671;28;20596;-68
2022/11/06 05:12:55;;;;;;;1.05;0.73;;;19.70;58.40;;;;;;6294759;28;20149;-69
2022/11/06 05:15:57;;;;;;;0.82;0.60;;;19.70;58.50;;;;;;6293093;28;20081;-69
2022/11/06 05:18:57;;;;;;;1.25;0.73;;;19.70;58.50;;;;;;6294683;28;20126;-69
2022/11/06 05:25:17;;;;;;;2.17;0.90;;;19.70;58.50;;;;;;6269515;28;20040;-69
2022/11/06 05:28:17;;;;;;;1.25;0.88;;;19.60;58.50;;;;;;6282104;28;20066;-68
2022/11/06 05:31:18;;;;;;;1.25;0.73;;;19.70;58.50;;;;;;6294254;28;20103;-69
2022/11/06 05:34:19;;;;;;;1.00;0.90;;;19.70;58.40;;;;;;6294080;28;20024;-68
2022/11/06 05:37:20;;;;;;;0.90;0.70;;;19.70;58.40;;;;;;6293455;28;20463;-68
2022/11/06 05:40:20;;;;;;;0.82;0.70;;;19.70;58.50;;;;;;6294359;28;20025;-69
2022/11/06 05:43:21;;;;;;;1.10;0.80;;;19.70;58.50;;;;;;6294093;28;20384;-68
2022/11/06 05:46:21;;;;;;;1.17;0.90;;;19.60;58.40;;;;;;6293678;28;20144;-68
2022/11/06 05:49:22;;;;;;;1.75;0.90;;;19.60;58.40;;;;;;6309118;28;20036;-69
2022/11/06 05:52:23;;;;;;;0.90;0.57;;;19.60;58.50;;;;;;6293793;28;20063;-69
2022/11/06 05:55:23;;;;;;;0.93;0.80;;;19.70;58.60;;;;;;6292967;28;20029;-68
2022/11/06 05:58:25;;;;;;;1.17;0.85;;;19.70;58.50;;;;;;6293450;28;20075;-69
2022/11/06 06:01:25;;;;;;;1.42;0.80;;;19.60;58.40;;;;;;6292451;28;20279;-68
2022/11/06 06:04:26;;;;;;;1.08;0.73;;;19.70;58.50;;;;;;6293545;28;20641;-68
2022/11/06 06:07:27;;;;;;;1.52;0.80;;;19.70;58.50;;;;;;6293362;28;20028;-69
2022/11/06 06:10:27;;;;;;;1.40;0.90;;;19.70;58.50;;;;;;6293113;28;20095;-69
2022/11/06 06:13:28;;;;;;;0.70;0.70;;;19.60;58.40;;;;;;6293197;28;20028;-69
2022/11/06 06:16:28;;;;;;;1.00;0.70;;;19.70;58.50;;;;;;6292890;28;20527;-68
2022/11/06 06:19:29;;;;;;;0.80;0.75;;;19.70;58.60;;;;;;6293270;28;20074;-69
2022/11/06 06:22:30;;;;;;;1.40;0.82;;;19.70;58.50;;;;;;6293075;28;20537;-69
2022/11/06 06:25:30;;;;;;;1.25;0.73;;;19.70;58.60;;;;;;6292615;28;20039;-68
2022/11/06 06:28:31;;;;;;;1.38;0.80;;;19.60;58.40;;;;;;6292754;28;20058;-68
2022/11/06 06:31:32;;;;;;;1.45;0.80;;;19.70;58.50;;;;;;6292756;28;20035;-69
2022/11/06 06:34:32;;;;;;;2.40;1.13;;;19.60;58.40;;;;;;6292581;28;20024;-68
2022/11/06 06:37:33;;;;;;;0.73;0.70;;;19.60;58.50;;;;;;6292413;28;20028;-68
2022/11/06 06:40:34;;;;;;;1.40;0.93;;;19.70;58.50;;;;;;6292625;28;20502;-69
2022/11/06 06:43:35;;;;;;;1.27;0.70;;;19.70;58.60;;;;;;6292238;28;20036;-68
2022/11/06 06:46:36;;;;;;;0.65;0.63;;;19.60;58.40;;;;;;6292428;28;20020;-68
2022/11/06 06:49:36;;;;;;;1.00;0.80;;;19.60;58.50;;;;;;6292246;28;20031;-69
2022/11/06 06:52:37;;;;;;;1.38;0.90;;;19.60;58.60;;;;;;6292343;28;20209;-68
2022/11/06 06:55:39;;;;;;;1.25;0.77;;;19.60;58.70;;;;;;6291927;28;20402;-69
2022/11/06 06:58:40;;;;;;;1.40;1.00;;;19.60;58.50;;;;;;6292522;28;20035;-68
2022/11/06 07:01:40;;;;;;;1.33;0.90;;;19.70;58.50;;;;;;6292391;28;20479;-68
2022/11/06 07:04:41;;;;;;;2.17;0.95;;;19.70;58.50;;;;;;6292165;28;20086;-68
2022/11/06 07:07:41;;;;;;;0.70;0.70;;;19.60;58.70;;;;;;6291956;28;20028;-68
2022/11/06 07:10:42;;;;;;;1.23;0.60;;;19.60;58.50;;;;;;6292261;28;20021;-68
2022/11/06 07:13:42;;;;;;;0.90;0.70;;;19.60;58.70;;;;;;6292456;28;20393;-67
2022/11/06 07:16:43;;;;;;;0.90;0.80;;;19.60;58.50;;;;;;6291361;28;20091;-68
2022/11/06 07:19:44;;;;;;;0.88;0.63;;;19.60;58.50;;;;;;6291409;28;20025;-68
2022/11/06 07:22:44;;;;;;;0.68;0.65;;;19.60;58.70;;;;;;6292148;28;20099;-68
2022/11/06 07:25:51;;;;;;;1.30;0.77;;;19.60;58.70;;;;;;6291562;28;20031;-68
2022/11/06 07:28:52;;;;;;;0.93;0.73;;;19.70;58.60;;;;;;6291821;28;20077;-69
2022/11/06 07:31:53;;;;;;;0.60;0.60;;;19.60;58.80;;;;;;6291794;28;20028;-68
2022/11/06 07:34:53;;;;;;;0.98;0.70;;;19.60;58.70;;;;;;6292270;28;20013;-70
2022/11/06 07:37:54;;;;;;;1.00;0.77;;;19.60;58.50;;;;;;6291973;28;20028;-69
2022/11/06 07:40:55;;;;;;;0.65;0.65;;;19.60;58.40;;;;;;6292008;28;20021;-69
2022/11/06 07:43:55;;;;;;;1.02;0.80;;;19.60;58.60;;;;;;6292094;28;20480;-68
2022/11/06 07:46:56;;;;;;;0.70;0.70;;;19.60;58.70;;;;;;6291610;28;20414;-69
2022/11/06 07:49:57;;;;;;;2.10;0.82;;;19.60;58.50;;;;;;6291649;28;20111;-69
2022/11/06 07:52:59;;;;;;;1.08;0.80;;;19.60;58.60;;;;;;6291453;28;20036;-69
2022/11/06 07:56:01;;;;;;;2.15;0.60;;;19.60;58.70;;;;;;6291612;28;20120;-69
2022/11/06 07:59:01;;;;;;;1.20;0.80;;;19.60;58.50;;;;;;6291687;28;20109;-69
2022/11/06 08:02:02;;;;;;;0.85;0.70;;;19.60;58.50;;;;;;6291621;28;20036;-69
2022/11/06 08:05:03;;;;;;;1.13;0.70;;;19.60;58.40;;;;;;6291267;28;20033;-69
2022/11/06 08:08:03;;;;;;;0.82;0.70;;;19.60;58.70;;;;;;6291542;28;20055;-68
2022/11/06 08:11:06;;;;;;;0.80;0.70;;;19.60;58.70;;;;;;6290977;28;20496;-68
2022/11/06 08:14:06;;;;;;;1.10;0.90;;;19.60;58.60;;;;;;6291846;28;20020;-69
2022/11/06 08:17:07;;;;;;;0.80;0.70;;;19.60;58.50;;;;;;6291174;28;20510;-68
2022/11/06 08:20:08;;;;;;;1.13;0.82;;;19.60;58.70;;;;;;6291385;28;20025;-69
2022/11/06 08:23:11;;;;;;;0.93;0.82;;;19.60;58.70;;;;;;6291107;28;20384;-68
2022/11/06 08:26:12;;;;;;;2.55;0.80;;;19.60;58.50;;;;;;6290970;28;20372;-68
2022/11/06 08:29:13;;;;;;;1.00;0.70;;;19.60;58.20;;;;;;6290932;28;20033;-69
2022/11/06 08:32:13;;;;;;;1.05;0.63;;;19.60;58.50;;;;;;6294264;28;20028;-68
2022/11/06 08:35:14;;;;;;;1.10;0.80;;;19.70;58.70;;;;;;6295486;28;20197;-68
2022/11/06 08:38:15;;;;;;;1.30;0.80;;;19.60;58.50;;;;;;6295335;28;20013;-68
2022/11/06 08:41:16;;;;;;;1.42;0.93;;;19.60;58.50;;;;;;6295194;28;20028;-68
2022/11/06 08:44:17;;;;;;;1.38;0.90;;;19.60;58.60;;;;;;6296215;28;20052;-68
2022/11/06 08:47:17;;;;;;;1.20;0.60;;;19.60;58.60;;;;;;6295497;28;20352;-69
2022/11/06 08:50:18;;;;;;;0.98;0.70;;;19.60;58.60;;;;;;6295410;28;20475;-68
2022/11/06 08:53:18;;;;;;;0.77;0.70;;;19.60;58.50;;;;;;6295145;28;20025;-69
2022/11/06 08:56:19;;;;;;;0.47;0.45;;;19.60;58.50;;;;;;6295264;28;20028;-69
2022/11/06 08:59:19;;;;;;;0.95;0.63;;;19.60;58.70;;;;;;6295137;28;20029;-68
2022/11/06 09:02:20;;;;;;;1.13;0.80;;;19.60;58.70;;;;;;6294850;28;20048;-68
2022/11/06 09:05:21;;;;;;;1.52;0.88;;;19.60;58.80;;;;;;6294683;28;20545;-68
2022/11/06 09:08:23;;;;;;;0.80;0.60;;;19.60;58.70;;;;;;6295260;28;20028;-69
2022/11/06 09:11:23;;;;;;;1.25;0.77;;;19.60;58.60;;;;;;6295098;28;20051;-69
2022/11/06 09:14:24;;;;;;;1.13;0.73;;;19.60;58.60;;;;;;6293477;28;20031;-69
2022/11/06 09:17:25;;;;;;;1.27;0.73;;;19.60;58.60;;;;;;6294548;28;20063;-69
2022/11/06 09:20:26;;;;;;;1.00;0.70;;;19.60;58.50;;;;;;6294656;28;20021;-68
2022/11/06 09:23:26;;;;;;;1.00;0.80;;;19.60;58.70;;;;;;6292681;28;20032;-68
2022/11/06 09:26:27;;;;;;;1.08;0.82;;;19.60;58.60;;;;;;6294229;28;20032;-68
2022/11/06 09:29:27;;;;;;;0.70;0.60;;;19.60;58.50;;;;;;6294197;28;20031;-68
2022/11/06 09:32:28;;;;;;;1.13;0.73;;;19.60;58.60;;;;;;6294220;28;20031;-69
2022/11/06 09:35:31;;;;;;;1.20;0.57;;;19.60;58.40;;;;;;6294390;28;20361;-68
2022/11/06 09:38:32;;;;;;;1.20;0.80;;;19.60;58.70;;;;;;6293853;28;20025;-68
2022/11/06 09:41:54;;;;;;;0.95;0.70;;;19.60;58.30;;;;;;6294016;28;20024;-68
2022/11/06 09:45:02;;;;;;;1.10;0.60;;;19.60;58.30;;;;;;6293465;28;20032;-69
2022/11/06 09:48:09;;;;;;;0.88;0.80;;;19.60;58.30;;;;;;6293751;28;20036;-68
2022/11/06 09:51:15;;;;;;;0.82;0.70;;;19.60;58.30;;;;;;6293608;28;20059;-69
2022/11/06 09:54:27;;;;;;;1.25;0.70;;;19.60;58.30;;;;;;6293300;28;20552;-69
2022/11/06 09:57:36;;;;;;;0.60;0.60;;;19.60;58.30;;;;;;6293283;28;20140;-69
2022/11/06 10:00:38;;;;;;;0.82;0.65;;;19.60;58.30;;;;;;6293676;28;20107;-68
2022/11/06 10:03:47;;;;;;;2.50;0.90;;;19.60;59.00;;;;;;6293301;28;20032;-68
2022/11/06 10:06:48;;;;;;;1.20;0.82;;;19.60;58.30;;;;;;6293402;28;20028;-69
2022/11/06 10:09:48;;;;;;;1.08;0.70;;;19.60;58.30;;;;;;6293148;28;20080;-69
2022/11/06 10:13:31;;;;;;;1.00;0.70;;;19.60;58.20;;;;;;6293258;28;20029;-69
2022/11/06 10:17:02;;;;;;;0.70;0.57;;;19.60;58.20;;;;;;6280662;28;20123;-68
2022/11/06 10:20:07;;;;;;;1.88;1.00;;;19.60;58.20;;;;;;6268231;28;20063;-68
2022/11/06 10:23:31;;;;;;;1.85;0.80;;;19.60;58.20;;;;;;6277582;28;20028;-69
2022/11/06 10:26:41;;;;;;;1.25;0.70;;;19.60;58.20;;;;;;6292929;28;20031;-68
2022/11/06 10:29:41;;;;;;;0.60;0.60;;;19.60;58.20;;;;;;6293875;28;20024;-68
2022/11/06 10:33:00;;;;;;;1.05;0.80;;;19.60;58.20;;;;;;6292965;28;20017;-69
2022/11/06 10:36:12;;;;;;;0.80;0.60;;;19.60;58.20;;;;;;6292662;28;20016;-69
2022/11/06 10:39:23;;;;;;;1.08;0.70;;;19.60;58.20;;;;;;6292588;28;20020;-68
2022/11/06 10:42:30;;;;;;;3.97;0.68;;;19.60;58.20;;;;;;6276458;28;20108;-67
2022/11/06 10:45:32;;;;;;;8.23;0.80;;;19.70;58.10;;;;;;6288855;28;20487;-69
2022/11/06 10:48:42;;;;;;;1.95;0.93;;;19.70;58.20;;;;;;6292978;28;20455;-68
2022/11/06 10:52:09;;;;;;;5.75;0.63;;;19.70;58.40;;;;;;6293287;28;20052;-68
2022/11/06 10:55:35;;;;;;;1.48;0.70;;;19.70;58.20;;;;;;6292179;28;20186;-68
2022/11/06 10:58:35;;;;;;;1.40;0.68;;;19.60;58.10;;;;;;6290401;28;20029;-67
2022/11/06 11:01:37;;;;;;;1.17;0.80;;;19.60;58.30;;;;;;6266911;28;20048;-68
2022/11/06 11:04:39;;;;;;;0.75;0.60;;;19.60;58.30;;;;;;6284093;28;20344;-68
2022/11/06 11:07:41;;;;;;;8.63;1.10;;;19.60;58.30;;;;;;6292122;28;20032;-67
2022/11/06 11:10:42;;;;;;;1.02;0.77;;;19.60;58.20;;;;;;6292209;28;20116;-68
2022/11/06 11:13:48;;;;;;;1.77;0.95;;;19.60;58.20;;;;;;6291849;28;20043;-68
2022/11/06 11:16:49;;;;;;;6.45;1.13;;;19.60;57.70;;;;;;6292387;28;20123;-68
2022/11/06 11:19:50;;;;;;;2.03;1.00;;;19.60;57.60;;;;;;6291665;28;20052;-68
2022/11/06 11:23:05;;;;;;;3.20;1.20;;;19.60;57.60;;;;;;6292089;28;20039;-68
2022/11/06 11:26:23;;;;;;;5.25;1.13;;;19.60;57.60;;;;;;6309127;28;20020;-69
2022/11/06 11:29:33;;;;;;;1.52;1.00;;;19.60;57.70;;;;;;6305807;28;20475;-68
2022/11/06 11:32:33;;;;;;;4.82;1.02;;;19.60;57.50;;;;;;6292042;28;20111;-68
2022/11/06 11:35:37;;;;;;;4.63;0.90;;;19.60;57.60;;;;;;6291481;28;20475;-68
2022/11/06 11:38:39;;;;;;;1.42;0.90;;;19.60;57.80;;;;;;6291830;28;20026;-68
2022/11/06 11:41:40;;;;;;;1.63;0.95;;;19.60;57.60;;;;;;6291730;28;20020;-67
2022/11/06 11:44:40;;;;;;;1.80;1.00;;;19.60;57.80;;;;;;6276747;28;20392;-68
2022/11/06 11:47:45;;;;;;;0.90;0.80;;;19.60;57.70;;;;;;6292743;28;20033;-68
2022/11/06 11:50:46;;;;;;;5.30;0.82;;;19.70;58.50;;;;;;6288824;28;20049;-68
2022/11/06 11:53:46;;;;;;;2.08;1.10;;;19.70;58.70;;;;;;6291010;28;20114;-68
2022/11/06 11:56:55;;;;;;;6.43;1.02;;;19.70;58.10;;;;;;6290026;28;20025;-68
2022/11/06 12:00:01;;;;;;;3.35;1.40;;;19.60;57.90;;;;;;6291195;28;20013;-68
2022/11/06 12:03:09;;;;;;;3.65;1.42;;;19.60;57.30;;;;;;6288897;28;20021;-68
2022/11/06 12:06:18;;;;;;;3.72;1.30;;;19.60;56.80;;;;;;6293897;28;20483;-68
2022/11/06 12:09:19;;;;;;;9.77;1.38;;;19.60;57.20;;;;;;6295650;28;20032;-68
2022/11/06 12:12:24;;;;;;;4.07;1.30;;;19.60;57.00;;;;;;6296038;28;20059;-69
2022/11/06 12:15:33;;;;;;;3.92;1.30;;;19.60;56.30;;;;;;6296568;28;20107;-69
2022/11/06 12:18:37;;;;;;;4.25;1.33;;;19.60;56.20;;;;;;6295622;28;20647;-68
2022/11/06 12:21:40;;;;;;;1.70;1.02;;;19.60;56.30;;;;;;6295310;28;20048;-68
2022/11/06 12:24:53;;;;;;;5.93;1.48;;;19.60;56.80;;;;;;6288144;28;20039;-68
2022/11/06 12:27:58;;;;;;;2.95;1.40;;;19.60;56.70;;;;;;6295613;28;20027;-68
2022/11/06 12:31:39;;;;;;;3.78;1.50;;;19.60;56.50;;;;;;6295187;28;20055;-68
2022/11/06 12:35:01;;;;;;;4.53;1.20;;;19.60;56.50;;;;;;6269386;28;20029;-68
2022/11/06 12:38:24;;;;;;;11.15;1.58;;;19.60;56.10;;;;;;6271209;28;20068;-68
2022/11/06 12:41:36;;;;;;;4.00;1.58;;;19.60;56.20;;;;;;6291712;28;20028;-68
2022/11/06 12:44:37;;;;;;;4.28;1.40;;;19.60;56.40;;;;;;6294983;28;20495;-68
2022/11/06 12:48:06;;;;;;;3.38;1.20;;;19.60;56.50;;;;;;6295391;28;20415;-68
2022/11/06 12:51:09;;;;;;;3.50;1.25;;;19.60;56.40;;;;;;6295283;28;20141;-68
2022/11/06 12:54:22;;;;;;;1.45;1.05;;;19.60;56.40;;;;;;6295421;28;20108;-68
2022/11/06 12:57:25;;;;;;;1.90;1.08;;;19.60;56.70;;;;;;6295475;28;20028;-68
2022/11/06 13:00:44;;;;;;;2.20;1.17;;;19.60;56.60;;;;;;6294186;28;20086;-69
2022/11/06 13:04:13;;;;;;;2.25;1.00;;;19.60;56.80;;;;;;6295038;28;20070;-68
2022/11/06 13:07:29;;;;;;;1.90;1.17;;;19.60;56.80;;;;;;6285489;28;20029;-68
2022/11/06 13:10:40;;;;;;;1.40;1.00;;;19.60;56.90;;;;;;6294722;28;20040;-68
2022/11/06 13:13:51;;;;;;;3.92;1.20;;;19.60;57.00;;;;;;6295494;28;20028;-68
2022/11/06 13:17:14;;;;;;;5.72;1.27;;;19.60;57.40;;;;;;6293990;28;20028;-67
2022/11/06 13:20:26;;;;;;;1.52;0.77;;;19.70;57.00;;;;;;6294298;28;20024;-68
2022/11/06 13:23:28;;;;;;;2.28;1.23;;;19.70;57.20;;;;;;6294950;28;20028;-68
2022/11/06 13:26:35;;;;;;;5.28;1.00;;;19.60;57.10;;;;;;6294707;28;20028;-68
2022/11/06 13:29:37;;;;;;;1.42;0.95;;;19.60;57.20;;;;;;6287980;28;20553;-68
2022/11/06 13:32:40;;;;;;;1.38;0.90;;;19.60;57.20;;;;;;6294601;28;20111;-68
2022/11/06 13:35:43;;;;;;;3.42;1.27;;;19.60;57.30;;;;;;6294042;28;20020;-68
2022/11/06 13:39:01;;;;;;;2.53;0.98;;;19.60;57.30;;;;;;6294164;28;20024;-68
2022/11/06 13:42:04;;;;;;;2.13;1.10;;;19.60;57.40;;;;;;6291439;28;20086;-69
2022/11/06 13:45:13;;;;;;;0.90;0.80;;;19.60;57.40;;;;;;6315267;28;20067;-68
2022/11/06 13:48:34;;;;;;;3.30;1.05;;;19.60;57.40;;;;;;6294070;28;20100;-68
2022/11/06 13:51:57;;;;;;;1.15;1.00;;;19.60;57.50;;;;;;6284211;28;20677;-69
2022/11/06 13:55:12;;;;;;;1.85;0.90;;;19.60;57.60;;;;;;6292435;28;20016;-68
2022/11/06 13:58:28;;;;;;;1.95;0.85;;;19.60;57.70;;;;;;6291553;28;20039;-68
2022/11/06 14:01:40;;;;;;;2.90;1.30;;;19.60;57.70;;;;;;6278471;28;20032;-69
2022/11/06 14:05:18;;;;;;;1.15;0.70;;;19.60;57.70;;;;;;6293338;28;20044;-69
2022/11/06 14:08:27;;;;;;;2.33;1.00;;;19.60;57.80;;;;;;6282374;28;20020;-68
2022/11/06 14:11:34;;;;;;;0.95;0.65;;;19.60;57.80;;;;;;6291943;28;20020;-68
2022/11/06 14:14:35;;;;;;;1.70;0.90;;;19.60;57.80;;;;;;6270390;28;20075;-68
2022/11/06 14:17:35;;;;;;;2.58;0.90;;;19.60;57.80;;;;;;6283767;28;20093;-69
2022/11/06 14:20:38;;;;;;;1.35;0.82;;;19.60;57.80;;;;;;6290434;28;20086;-67
2022/11/06 14:23:42;;;;;;;1.10;0.80;;;19.60;57.80;;;;;;6290765;28;20029;-67
2022/11/06 14:26:46;;;;;;;1.23;0.90;;;19.60;57.70;;;;;;6289941;28;20042;-68
2022/11/06 14:30:00;;;;;;;2.20;1.27;;;19.60;57.90;;;;;;6292853;28;20021;-68
2022/11/06 14:33:01;;;;;;;1.17;0.90;;;19.60;57.90;;;;;;6292814;28;20040;-68
2022/11/06 14:36:32;;;;;;;1.60;1.00;;;19.60;58.00;;;;;;6293095;28;20543;-68
2022/11/06 14:39:51;;;;;;;1.70;0.65;;;19.60;58.00;;;;;;6291092;28;20044;-69
2022/11/06 14:42:51;;;;;;;3.90;1.00;;;19.60;57.80;;;;;;6292161;28;20028;-68
2022/11/06 14:45:57;;;;;;;2.40;0.90;;;19.60;58.10;;;;;;6292738;28;20039;-68
2022/11/06 14:49:24;;;;;;;1.30;0.60;;;19.60;57.90;;;;;;6292789;28;20029;-67
2022/11/06 14:52:25;;;;;;;2.15;0.95;;;19.60;57.60;;;;;;6283672;28;20045;-68
2022/11/06 14:55:36;;;;;;;1.70;0.80;;;19.60;57.80;;;;;;6290343;28;20025;-68
2022/11/06 14:58:49;;;;;;;1.25;0.80;;;19.60;58.00;;;;;;6292257;28;20028;-68
2022/11/06 15:01:56;;;;;;;1.50;0.85;;;19.60;58.00;;;;;;6292118;28;20035;-68
2022/11/06 15:05:11;;;;;;;1.65;0.80;;;19.60;57.90;;;;;;6292760;28;20506;-68
2022/11/06 15:08:31;;;;;;;1.20;0.80;;;19.60;58.10;;;;;;6292430;28;20629;-68
2022/11/06 15:11:33;;;;;;;0.75;0.52;;;19.60;57.90;;;;;;6291917;28;20107;-68
2022/11/06 15:14:33;;;;;;;0.93;0.70;;;19.60;58.20;;;;;;6292450;28;20029;-68
2022/11/06 15:17:35;;;;;;;1.15;0.60;;;19.60;58.20;;;;;;6292184;28;20498;-68
2022/11/06 15:20:36;;;;;;;2.00;0.82;;;19.60;58.10;;;;;;6292233;28;20027;-67
2022/11/06 15:24:08;;;;;;;0.98;0.60;;;19.60;58.20;;;;;;6291965;28;20452;-69
2022/11/06 15:27:16;;;;;;;0.82;0.65;;;19.60;58.20;;;;;;6290772;28;20102;-68
2022/11/06 15:30:19;;;;;;;1.10;0.70;;;19.60;58.20;;;;;;6291966;28;20027;-68
2022/11/06 15:33:59;;;;;;;0.98;0.65;;;19.60;58.00;;;;;;6292185;28;20036;-68
2022/11/06 15:37:10;;;;;;;1.33;0.52;;;19.60;58.30;;;;;;6270669;28;20171;-69
2022/11/06 15:40:32;;;;;;;1.75;0.70;;;19.60;58.20;;;;;;6294243;28;20064;-68
2022/11/06 15:43:36;;;;;;;1.17;0.90;;;19.60;58.20;;;;;;6296859;28;20043;-68
2022/11/06 15:46:36;;;;;;;1.13;0.75;;;19.60;58.20;;;;;;6297211;28;20039;-68
2022/11/06 15:49:37;;;;;;;2.45;0.80;;;19.60;58.30;;;;;;6296316;28;20064;-68
2022/11/06 15:52:39;;;;;;;1.88;0.88;;;19.60;58.10;;;;;;6296570;28;20398;-68
2022/11/06 15:55:47;;;;;;;0.57;0.52;;;19.60;58.30;;;;;;6296649;28;20104;-68
2022/11/06 15:59:08;;;;;;;1.10;0.70;;;19.60;58.40;;;;;;6296367;28;20016;-68
2022/11/06 16:02:21;;;;;;;0.82;0.50;;;19.60;58.30;;;;;;6296835;28;20028;-68
2022/11/06 16:05:23;;;;;;;0.90;0.60;;;19.60;58.20;;;;;;6296936;28;20044;-68
2022/11/06 16:08:26;;;;;;;0.70;0.50;;;19.60;58.40;;;;;;6296742;28;20024;-68
2022/11/06 16:11:28;;;;;;;1.00;0.60;;;19.60;58.30;;;;;;6295959;28;20039;-68
2022/11/06 16:14:28;;;;;;;0.75;0.70;;;19.60;58.20;;;;;;6296366;28;20021;-68
2022/11/06 16:17:29;;;;;;;1.00;0.70;;;19.60;58.40;;;;;;6296548;28;20025;-68
2022/11/06 16:20:29;;;;;;;0.82;0.60;;;19.60;58.50;;;;;;6296317;28;20020;-68